sensor_id;sensor_type;location;lat;lon;timestamp;P1;durP1;ratioP1;P2;durP2;ratioP2
22425;SDS011;11380;50.822;15.790;2022-08-25T00:02:48;72.73;;;58.73;;
22425;SDS011;11380;50.822;15.790;2022-08-25T00:07:56;63.67;;;56.80;;
22425;SDS011;11380;50.822;15.790;2022-08-25T00:13:02;65.97;;;58.70;;
22425;SDS011;11380;50.822;15.790;2022-08-25T00:18:10;71.37;;;59.57;;
22425;SDS011;11380;50.822;15.790;2022-08-25T00:23:17;65.20;;;58.60;;
22425;SDS011;11380;50.822;15.790;2022-08-25T00:28:23;64.20;;;57.20;;
22425;SDS011;11380;50.822;15.790;2022-08-25T00:33:28;63.03;;;56.63;;
22425;SDS011;11380;50.822;15.790;2022-08-25T00:38:38;64.35;;;57.83;;
22425;SDS011;11380;50.822;15.790;2022-08-25T00:43:52;64.00;;;57.67;;
22425;SDS011;11380;50.822;15.790;2022-08-25T00:49:00;64.07;;;57.83;;
22425;SDS011;11380;50.822;15.790;2022-08-25T00:54:10;63.30;;;57.07;;
22425;SDS011;11380;50.822;15.790;2022-08-25T00:59:18;63.28;;;57.15;;
22425;SDS011;11380;50.822;15.790;2022-08-25T01:04:25;61.53;;;55.63;;
22425;SDS011;11380;50.822;15.790;2022-08-25T01:09:33;61.53;;;55.45;;
22425;SDS011;11380;50.822;15.790;2022-08-25T01:14:39;60.13;;;54.47;;
22425;SDS011;11380;50.822;15.790;2022-08-25T01:19:47;61.83;;;55.73;;
22425;SDS011;11380;50.822;15.790;2022-08-25T01:24:58;61.18;;;55.35;;
22425;SDS011;11380;50.822;15.790;2022-08-25T01:30:05;60.17;;;54.27;;
22425;SDS011;11380;50.822;15.790;2022-08-25T01:35:11;60.88;;;54.95;;
22425;SDS011;11380;50.822;15.790;2022-08-25T01:40:17;60.65;;;54.80;;
22425;SDS011;11380;50.822;15.790;2022-08-25T01:50:29;61.13;;;55.20;;
22425;SDS011;11380;50.822;15.790;2022-08-25T01:55:35;60.80;;;55.10;;
22425;SDS011;11380;50.822;15.790;2022-08-25T02:00:49;60.93;;;54.53;;
22425;SDS011;11380;50.822;15.790;2022-08-25T02:05:57;60.20;;;54.40;;
22425;SDS011;11380;50.822;15.790;2022-08-25T02:11:05;60.77;;;54.50;;
22425;SDS011;11380;50.822;15.790;2022-08-25T02:16:16;61.55;;;55.73;;
22425;SDS011;11380;50.822;15.790;2022-08-25T02:21:27;61.83;;;55.83;;
22425;SDS011;11380;50.822;15.790;2022-08-25T02:26:33;62.40;;;56.37;;
22425;SDS011;11380;50.822;15.790;2022-08-25T02:31:39;62.83;;;56.70;;
22425;SDS011;11380;50.822;15.790;2022-08-25T02:36:45;61.55;;;55.60;;
22425;SDS011;11380;50.822;15.790;2022-08-25T02:41:50;62.80;;;56.70;;
22425;SDS011;11380;50.822;15.790;2022-08-25T02:46:57;64.17;;;57.75;;
22425;SDS011;11380;50.822;15.790;2022-08-25T02:52:02;63.67;;;57.17;;
22425;SDS011;11380;50.822;15.790;2022-08-25T02:57:07;63.47;;;57.10;;
22425;SDS011;11380;50.822;15.790;2022-08-25T03:02:14;61.77;;;55.67;;
22425;SDS011;11380;50.822;15.790;2022-08-25T03:07:20;61.55;;;55.73;;
22425;SDS011;11380;50.822;15.790;2022-08-25T03:12:27;61.93;;;55.90;;
22425;SDS011;11380;50.822;15.790;2022-08-25T03:17:34;61.33;;;55.23;;
22425;SDS011;11380;50.822;15.790;2022-08-25T03:22:41;62.45;;;56.55;;
22425;SDS011;11380;50.822;15.790;2022-08-25T03:27:46;61.07;;;55.43;;
22425;SDS011;11380;50.822;15.790;2022-08-25T03:32:52;62.43;;;55.93;;
22425;SDS011;11380;50.822;15.790;2022-08-25T03:37:58;62.45;;;56.25;;
22425;SDS011;11380;50.822;15.790;2022-08-25T03:48:10;62.54;;;56.48;;
22425;SDS011;11380;50.822;15.790;2022-08-25T03:53:16;62.43;;;56.13;;
22425;SDS011;11380;50.822;15.790;2022-08-25T03:58:23;63.10;;;56.98;;
22425;SDS011;11380;50.822;15.790;2022-08-25T04:03:28;63.40;;;57.00;;
22425;SDS011;11380;50.822;15.790;2022-08-25T04:08:33;64.43;;;57.97;;
22425;SDS011;11380;50.822;15.790;2022-08-25T04:13:39;63.93;;;57.40;;
22425;SDS011;11380;50.822;15.790;2022-08-25T04:18:45;63.63;;;56.92;;
22425;SDS011;11380;50.822;15.790;2022-08-25T04:28:58;62.75;;;56.75;;
22425;SDS011;11380;50.822;15.790;2022-08-25T04:34:06;62.53;;;56.30;;
22425;SDS011;11380;50.822;15.790;2022-08-25T04:39:14;64.15;;;57.75;;
22425;SDS011;11380;50.822;15.790;2022-08-25T04:44:19;64.77;;;58.53;;
22425;SDS011;11380;50.822;15.790;2022-08-25T04:49:26;63.45;;;57.05;;
22425;SDS011;11380;50.822;15.790;2022-08-25T04:54:32;65.10;;;58.65;;
22425;SDS011;11380;50.822;15.790;2022-08-25T04:59:40;63.73;;;57.30;;
22425;SDS011;11380;50.822;15.790;2022-08-25T05:04:45;63.37;;;57.00;;
22425;SDS011;11380;50.822;15.790;2022-08-25T05:09:50;63.87;;;57.30;;
22425;SDS011;11380;50.822;15.790;2022-08-25T05:14:56;64.07;;;57.67;;
22425;SDS011;11380;50.822;15.790;2022-08-25T05:20:03;64.37;;;58.10;;
22425;SDS011;11380;50.822;15.790;2022-08-25T05:25:10;65.10;;;58.80;;
22425;SDS011;11380;50.822;15.790;2022-08-25T05:30:17;73.63;;;66.13;;
22425;SDS011;11380;50.822;15.790;2022-08-25T05:35:22;84.73;;;75.67;;
22425;SDS011;11380;50.822;15.790;2022-08-25T05:40:28;93.50;;;83.60;;
22425;SDS011;11380;50.822;15.790;2022-08-25T05:50:39;75.42;;;67.78;;
22425;SDS011;11380;50.822;15.790;2022-08-25T05:55:45;71.03;;;63.73;;
22425;SDS011;11380;50.822;15.790;2022-08-25T06:06:04;66.67;;;59.98;;
22425;SDS011;11380;50.822;15.790;2022-08-25T06:11:11;68.10;;;61.20;;
22425;SDS011;11380;50.822;15.790;2022-08-25T06:16:17;73.80;;;66.10;;
22425;SDS011;11380;50.822;15.790;2022-08-25T06:21:22;76.37;;;68.17;;
22425;SDS011;11380;50.822;15.790;2022-08-25T06:26:28;78.55;;;70.05;;
22425;SDS011;11380;50.822;15.790;2022-08-25T06:31:33;80.17;;;71.80;;
22425;SDS011;11380;50.822;15.790;2022-08-25T06:36:39;78.80;;;70.53;;
22425;SDS011;11380;50.822;15.790;2022-08-25T06:41:44;75.90;;;67.80;;
22425;SDS011;11380;50.822;15.790;2022-08-25T06:46:52;69.82;;;62.62;;
22425;SDS011;11380;50.822;15.790;2022-08-25T06:51:58;72.85;;;65.20;;
22425;SDS011;11380;50.822;15.790;2022-08-25T06:57:03;75.23;;;67.17;;
22425;SDS011;11380;50.822;15.790;2022-08-25T07:02:14;74.97;;;66.87;;
22425;SDS011;11380;50.822;15.790;2022-08-25T07:07:21;68.22;;;60.90;;
22425;SDS011;11380;50.822;15.790;2022-08-25T07:12:26;75.20;;;67.17;;
22425;SDS011;11380;50.822;15.790;2022-08-25T07:17:31;73.83;;;64.97;;
22425;SDS011;11380;50.822;15.790;2022-08-25T07:22:37;75.72;;;66.87;;
22425;SDS011;11380;50.822;15.790;2022-08-25T07:27:43;69.87;;;62.33;;
22425;SDS011;11380;50.822;15.790;2022-08-25T07:32:48;69.50;;;62.47;;
22425;SDS011;11380;50.822;15.790;2022-08-25T07:37:56;67.50;;;60.80;;
22425;SDS011;11380;50.822;15.790;2022-08-25T07:43:04;67.00;;;60.20;;
22425;SDS011;11380;50.822;15.790;2022-08-25T07:48:11;67.87;;;61.27;;
22425;SDS011;11380;50.822;15.790;2022-08-25T07:53:17;66.30;;;59.77;;
22425;SDS011;11380;50.822;15.790;2022-08-25T07:58:25;67.50;;;60.53;;
22425;SDS011;11380;50.822;15.790;2022-08-25T08:03:31;67.53;;;60.45;;
22425;SDS011;11380;50.822;15.790;2022-08-25T08:08:40;66.93;;;60.13;;
22425;SDS011;11380;50.822;15.790;2022-08-25T08:13:47;67.20;;;60.17;;
22425;SDS011;11380;50.822;15.790;2022-08-25T08:18:55;67.72;;;60.40;;
22425;SDS011;11380;50.822;15.790;2022-08-25T08:24:01;67.10;;;60.43;;
22425;SDS011;11380;50.822;15.790;2022-08-25T08:29:09;67.70;;;60.50;;
22425;SDS011;11380;50.822;15.790;2022-08-25T08:34:15;69.00;;;61.80;;
22425;SDS011;11380;50.822;15.790;2022-08-25T08:39:21;69.32;;;60.67;;
22425;SDS011;11380;50.822;15.790;2022-08-25T08:49:39;66.92;;;60.10;;
22425;SDS011;11380;50.822;15.790;2022-08-25T08:55:02;89.73;;;62.47;;
22425;SDS011;11380;50.822;15.790;2022-08-25T09:00:09;65.53;;;58.97;;
22425;SDS011;11380;50.822;15.790;2022-08-25T09:05:16;65.83;;;58.90;;
22425;SDS011;11380;50.822;15.790;2022-08-25T09:10:23;65.73;;;58.73;;
22425;SDS011;11380;50.822;15.790;2022-08-25T09:15:37;68.53;;;58.07;;
22425;SDS011;11380;50.822;15.790;2022-08-25T09:26:29;65.90;;;58.27;;
22425;SDS011;11380;50.822;15.790;2022-08-25T09:31:42;72.10;;;57.88;;
22425;SDS011;11380;50.822;15.790;2022-08-25T09:36:49;64.80;;;56.73;;
22425;SDS011;11380;50.822;15.790;2022-08-25T09:41:57;63.60;;;56.83;;
22425;SDS011;11380;50.822;15.790;2022-08-25T09:47:04;64.55;;;57.60;;
22425;SDS011;11380;50.822;15.790;2022-08-25T09:52:20;65.33;;;57.50;;
22425;SDS011;11380;50.822;15.790;2022-08-25T09:57:33;69.50;;;57.62;;
22425;SDS011;11380;50.822;15.790;2022-08-25T10:02:40;67.00;;;57.83;;
22425;SDS011;11380;50.822;15.790;2022-08-25T10:07:54;64.17;;;57.13;;
22425;SDS011;11380;50.822;15.790;2022-08-25T10:12:56;66.43;;;56.93;;
22425;SDS011;11380;50.822;15.790;2022-08-25T10:23:30;67.53;;;57.43;;
22425;SDS011;11380;50.822;15.790;2022-08-25T10:39:42;71.07;;;58.40;;
22425;SDS011;11380;50.822;15.790;2022-08-25T10:45:05;68.93;;;57.20;;
22425;SDS011;11380;50.822;15.790;2022-08-25T10:50:42;70.60;;;57.90;;
22425;SDS011;11380;50.822;15.790;2022-08-25T11:06:51;67.53;;;59.13;;
22425;SDS011;11380;50.822;15.790;2022-08-25T11:12:11;64.82;;;57.98;;
22425;SDS011;11380;50.822;15.790;2022-08-25T11:17:22;66.83;;;59.23;;
22425;SDS011;11380;50.822;15.790;2022-08-25T11:22:41;70.30;;;58.33;;
22425;SDS011;11380;50.822;15.790;2022-08-25T11:27:56;66.93;;;58.97;;
22425;SDS011;11380;50.822;15.790;2022-08-25T11:33:04;68.12;;;59.77;;
22425;SDS011;11380;50.822;15.790;2022-08-25T11:54:19;71.77;;;60.87;;
22425;SDS011;11380;50.822;15.790;2022-08-25T12:04:59;69.05;;;61.55;;
22425;SDS011;11380;50.822;15.790;2022-08-25T12:10:09;73.30;;;61.73;;
22425;SDS011;11380;50.822;15.790;2022-08-25T12:15:25;69.27;;;61.67;;
22425;SDS011;11380;50.822;15.790;2022-08-25T12:26:23;67.90;;;60.50;;
22425;SDS011;11380;50.822;15.790;2022-08-25T12:36:56;73.63;;;59.60;;
22425;SDS011;11380;50.822;15.790;2022-08-25T12:42:06;76.47;;;60.33;;
22425;SDS011;11380;50.822;15.790;2022-08-25T12:52:34;68.85;;;60.23;;
22425;SDS011;11380;50.822;15.790;2022-08-25T12:57:45;68.67;;;60.40;;
22425;SDS011;11380;50.822;15.790;2022-08-25T13:03:03;68.30;;;60.80;;
22425;SDS011;11380;50.822;15.790;2022-08-25T13:08:35;73.10;;;61.48;;
22425;SDS011;11380;50.822;15.790;2022-08-25T13:13:50;72.47;;;60.23;;
22425;SDS011;11380;50.822;15.790;2022-08-25T13:19:05;73.47;;;60.03;;
22425;SDS011;11380;50.822;15.790;2022-08-25T13:24:20;74.60;;;60.87;;
22425;SDS011;11380;50.822;15.790;2022-08-25T13:29:30;67.80;;;60.13;;
22425;SDS011;11380;50.822;15.790;2022-08-25T13:34:39;71.50;;;61.00;;
22425;SDS011;11380;50.822;15.790;2022-08-25T13:39:45;77.33;;;60.50;;
22425;SDS011;11380;50.822;15.790;2022-08-25T13:44:53;74.22;;;60.05;;
22425;SDS011;11380;50.822;15.790;2022-08-25T13:55:32;73.53;;;58.93;;
22425;SDS011;11380;50.822;15.790;2022-08-25T14:00:40;79.43;;;59.63;;
22425;SDS011;11380;50.822;15.790;2022-08-25T14:05:46;73.57;;;60.33;;
22425;SDS011;11380;50.822;15.790;2022-08-25T14:16:19;71.40;;;58.93;;
22425;SDS011;11380;50.822;15.790;2022-08-25T14:21:28;67.50;;;58.58;;
22425;SDS011;11380;50.822;15.790;2022-08-25T14:26:36;78.97;;;59.87;;
22425;SDS011;11380;50.822;15.790;2022-08-25T14:31:44;71.47;;;58.97;;
22425;SDS011;11380;50.822;15.790;2022-08-25T14:36:50;75.25;;;58.80;;
22425;SDS011;11380;50.822;15.790;2022-08-25T14:41:56;84.53;;;61.50;;
22425;SDS011;11380;50.822;15.790;2022-08-25T14:47:02;68.78;;;59.63;;
22425;SDS011;11380;50.822;15.790;2022-08-25T14:52:21;67.54;;;60.30;;
22425;SDS011;11380;50.822;15.790;2022-08-25T14:57:28;70.83;;;59.30;;
22425;SDS011;11380;50.822;15.790;2022-08-25T15:02:35;77.37;;;59.27;;
22425;SDS011;11380;50.822;15.790;2022-08-25T15:07:43;74.23;;;61.27;;
22425;SDS011;11380;50.822;15.790;2022-08-25T15:13:08;72.13;;;59.63;;
22425;SDS011;11380;50.822;15.790;2022-08-25T15:18:14;71.72;;;59.50;;
22425;SDS011;11380;50.822;15.790;2022-08-25T15:23:22;74.10;;;60.50;;
22425;SDS011;11380;50.822;15.790;2022-08-25T15:33:32;74.32;;;59.53;;
22425;SDS011;11380;50.822;15.790;2022-08-25T15:38:38;72.17;;;59.73;;
22425;SDS011;11380;50.822;15.790;2022-08-25T15:43:46;71.80;;;60.03;;
22425;SDS011;11380;50.822;15.790;2022-08-25T15:48:53;72.07;;;59.57;;
22425;SDS011;11380;50.822;15.790;2022-08-25T15:54:02;67.17;;;58.93;;
22425;SDS011;11380;50.822;15.790;2022-08-25T15:59:07;64.87;;;57.70;;
22425;SDS011;11380;50.822;15.790;2022-08-25T16:04:13;72.37;;;59.57;;
22425;SDS011;11380;50.822;15.790;2022-08-25T16:09:20;65.45;;;58.52;;
22425;SDS011;11380;50.822;15.790;2022-08-25T16:14:27;65.77;;;58.77;;
22425;SDS011;11380;50.822;15.790;2022-08-25T16:19:32;67.50;;;59.73;;
22425;SDS011;11380;50.822;15.790;2022-08-25T16:24:41;72.60;;;58.77;;
22425;SDS011;11380;50.822;15.790;2022-08-25T16:29:47;66.55;;;59.35;;
22425;SDS011;11380;50.822;15.790;2022-08-25T16:34:52;70.70;;;58.73;;
22425;SDS011;11380;50.822;15.790;2022-08-25T16:39:58;70.57;;;59.07;;
22425;SDS011;11380;50.822;15.790;2022-08-25T16:45:04;67.27;;;59.27;;
22425;SDS011;11380;50.822;15.790;2022-08-25T16:50:11;69.23;;;59.40;;
22425;SDS011;11380;50.822;15.790;2022-08-25T16:55:16;67.97;;;58.38;;
22425;SDS011;11380;50.822;15.790;2022-08-25T17:00:23;68.57;;;59.03;;
22425;SDS011;11380;50.822;15.790;2022-08-25T17:05:31;69.90;;;61.23;;
22425;SDS011;11380;50.822;15.790;2022-08-25T17:10:39;75.30;;;60.10;;
22425;SDS011;11380;50.822;15.790;2022-08-25T17:15:46;77.27;;;60.43;;
22425;SDS011;11380;50.822;15.790;2022-08-25T17:21:01;72.87;;;59.30;;
22425;SDS011;11380;50.822;15.790;2022-08-25T17:26:12;71.15;;;59.45;;
22425;SDS011;11380;50.822;15.790;2022-08-25T17:31:20;68.37;;;59.65;;
22425;SDS011;11380;50.822;15.790;2022-08-25T17:36:26;65.92;;;58.35;;
22425;SDS011;11380;50.822;15.790;2022-08-25T17:41:32;69.80;;;59.03;;
22425;SDS011;11380;50.822;15.790;2022-08-25T17:46:40;67.37;;;60.03;;
22425;SDS011;11380;50.822;15.790;2022-08-25T17:51:48;71.20;;;58.90;;
22425;SDS011;11380;50.822;15.790;2022-08-25T17:56:54;70.97;;;60.63;;
22425;SDS011;11380;50.822;15.790;2022-08-25T18:01:59;71.47;;;59.97;;
22425;SDS011;11380;50.822;15.790;2022-08-25T18:12:10;66.10;;;59.02;;
22425;SDS011;11380;50.822;15.790;2022-08-25T18:17:18;67.42;;;59.15;;
22425;SDS011;11380;50.822;15.790;2022-08-25T18:22:25;66.30;;;59.07;;
22425;SDS011;11380;50.822;15.790;2022-08-25T18:27:31;68.87;;;58.95;;
22425;SDS011;11380;50.822;15.790;2022-08-25T18:32:37;72.00;;;59.57;;
22425;SDS011;11380;50.822;15.790;2022-08-25T18:37:43;68.73;;;59.70;;
22425;SDS011;11380;50.822;15.790;2022-08-25T18:43:08;71.63;;;59.43;;
22425;SDS011;11380;50.822;15.790;2022-08-25T18:48:17;68.40;;;58.03;;
22425;SDS011;11380;50.822;15.790;2022-08-25T18:53:28;67.27;;;60.15;;
22425;SDS011;11380;50.822;15.790;2022-08-25T18:58:38;74.93;;;60.23;;
22425;SDS011;11380;50.822;15.790;2022-08-25T19:03:44;65.80;;;58.53;;
22425;SDS011;11380;50.822;15.790;2022-08-25T19:08:50;72.47;;;62.30;;
22425;SDS011;11380;50.822;15.790;2022-08-25T19:13:56;68.05;;;60.85;;
22425;SDS011;11380;50.822;15.790;2022-08-25T19:19:03;69.67;;;61.73;;
22425;SDS011;11380;50.822;15.790;2022-08-25T19:24:11;69.00;;;61.43;;
22425;SDS011;11380;50.822;15.790;2022-08-25T19:29:17;69.70;;;61.63;;
22425;SDS011;11380;50.822;15.790;2022-08-25T19:34:24;68.63;;;60.90;;
22425;SDS011;11380;50.822;15.790;2022-08-25T19:39:34;70.70;;;62.10;;
22425;SDS011;11380;50.822;15.790;2022-08-25T19:44:42;69.07;;;61.77;;
22425;SDS011;11380;50.822;15.790;2022-08-25T19:49:47;69.00;;;61.07;;
22425;SDS011;11380;50.822;15.790;2022-08-25T19:54:53;74.53;;;62.80;;
22425;SDS011;11380;50.822;15.790;2022-08-25T19:59:59;70.70;;;62.95;;
22425;SDS011;11380;50.822;15.790;2022-08-25T20:05:05;79.13;;;64.50;;
22425;SDS011;11380;50.822;15.790;2022-08-25T20:10:11;72.27;;;61.90;;
22425;SDS011;11380;50.822;15.790;2022-08-25T20:15:17;68.80;;;61.33;;
22425;SDS011;11380;50.822;15.790;2022-08-25T20:20:23;70.15;;;62.58;;
22425;SDS011;11380;50.822;15.790;2022-08-25T20:25:31;70.43;;;63.10;;
22425;SDS011;11380;50.822;15.790;2022-08-25T20:30:41;70.00;;;61.83;;
22425;SDS011;11380;50.822;15.790;2022-08-25T20:35:48;74.47;;;61.57;;
22425;SDS011;11380;50.822;15.790;2022-08-25T20:40:56;69.03;;;61.40;;
22425;SDS011;11380;50.822;15.790;2022-08-25T20:46:02;68.28;;;60.50;;
22425;SDS011;11380;50.822;15.790;2022-08-25T20:51:11;72.25;;;61.30;;
22425;SDS011;11380;50.822;15.790;2022-08-25T20:56:18;74.10;;;61.03;;
22425;SDS011;11380;50.822;15.790;2022-08-25T21:06:32;66.62;;;59.67;;
22425;SDS011;11380;50.822;15.790;2022-08-25T21:11:39;65.60;;;58.80;;
22425;SDS011;11380;50.822;15.790;2022-08-25T21:16:46;67.97;;;57.93;;
22425;SDS011;11380;50.822;15.790;2022-08-25T21:21:53;64.07;;;57.67;;
22425;SDS011;11380;50.822;15.790;2022-08-25T21:27:01;67.55;;;60.20;;
22425;SDS011;11380;50.822;15.790;2022-08-25T21:32:07;65.83;;;58.95;;
22425;SDS011;11380;50.822;15.790;2022-08-25T21:37:13;65.75;;;58.92;;
22425;SDS011;11380;50.822;15.790;2022-08-25T21:42:19;64.53;;;57.67;;
22425;SDS011;11380;50.822;15.790;2022-08-25T21:47:27;65.27;;;58.37;;
22425;SDS011;11380;50.822;15.790;2022-08-25T21:52:34;65.47;;;58.63;;
22425;SDS011;11380;50.822;15.790;2022-08-25T21:57:39;66.93;;;59.17;;
22425;SDS011;11380;50.822;15.790;2022-08-25T22:02:46;65.33;;;58.50;;
22425;SDS011;11380;50.822;15.790;2022-08-25T22:07:52;65.57;;;58.87;;
22425;SDS011;11380;50.822;15.790;2022-08-25T22:12:58;66.85;;;59.60;;
22425;SDS011;11380;50.822;15.790;2022-08-25T22:18:05;68.13;;;60.17;;
22425;SDS011;11380;50.822;15.790;2022-08-25T22:23:11;67.27;;;59.58;;
22425;SDS011;11380;50.822;15.790;2022-08-25T22:28:21;66.87;;;59.77;;
22425;SDS011;11380;50.822;15.790;2022-08-25T22:33:27;66.73;;;59.57;;
22425;SDS011;11380;50.822;15.790;2022-08-25T22:38:33;73.97;;;61.23;;
22425;SDS011;11380;50.822;15.790;2022-08-25T22:43:40;69.07;;;59.30;;
22425;SDS011;11380;50.822;15.790;2022-08-25T22:48:46;67.67;;;60.45;;
22425;SDS011;11380;50.822;15.790;2022-08-25T22:53:54;67.90;;;60.10;;
22425;SDS011;11380;50.822;15.790;2022-08-25T23:04:06;63.42;;;57.13;;
22425;SDS011;11380;50.822;15.790;2022-08-25T23:09:13;62.40;;;56.20;;
22425;SDS011;11380;50.822;15.790;2022-08-25T23:14:18;63.70;;;57.03;;
22425;SDS011;11380;50.822;15.790;2022-08-25T23:19:24;62.53;;;56.30;;
22425;SDS011;11380;50.822;15.790;2022-08-25T23:24:30;63.53;;;56.77;;
22425;SDS011;11380;50.822;15.790;2022-08-25T23:29:36;75.87;;;55.37;;
22425;SDS011;11380;50.822;15.790;2022-08-25T23:34:44;63.87;;;56.90;;
22425;SDS011;11380;50.822;15.790;2022-08-25T23:39:51;62.63;;;56.07;;
22425;SDS011;11380;50.822;15.790;2022-08-25T23:44:57;63.23;;;55.98;;
22425;SDS011;11380;50.822;15.790;2022-08-25T23:50:04;61.67;;;55.80;;
22425;SDS011;11380;50.822;15.790;2022-08-25T23:55:11;62.04;;;55.82;;
